createdAt,value
2023-01-30T00:01:13.034Z,29.42
2023-01-30T00:03:39.582Z,29.98
2023-01-30T00:06:06.275Z,29.35
2023-01-30T00:08:32.847Z,29.17
2023-01-30T00:11:07.622Z,28.80
2023-01-30T00:13:34.567Z,27.55
2023-01-30T00:16:01.546Z,29.58
2023-01-30T00:18:28.845Z,29.45
2023-01-30T00:20:59.644Z,28.70
2023-01-30T00:23:27.951Z,28.50
2023-01-30T00:25:55.108Z,31.83
2023-01-30T00:28:22.367Z,28.73
2023-01-30T00:30:52.986Z,30.48
2023-01-30T00:33:21.097Z,28.75
2023-01-30T00:35:49.521Z,28.75
2023-01-30T00:38:16.622Z,29.88
2023-01-30T00:40:44.197Z,29.23
2023-01-30T00:43:32.592Z,28.20
2023-01-30T00:46:20.238Z,29.55
2023-01-30T00:48:46.718Z,30.63
2023-01-30T00:51:13.390Z,28.90
2023-01-30T00:53:39.983Z,31.02
2023-01-30T00:56:07.024Z,29.30
2023-01-30T00:58:33.865Z,29.58
2023-01-30T01:01:00.475Z,30.40
2023-01-30T01:03:27.079Z,32.17
2023-01-30T01:05:53.635Z,30.45
2023-01-30T01:08:22.530Z,29.73
2023-01-30T01:10:49.257Z,31.02
2023-01-30T01:13:15.875Z,28.58
2023-01-30T01:15:42.427Z,28.40
2023-01-30T01:18:09.141Z,29.25
2023-01-30T01:20:35.680Z,30.70
2023-01-30T01:23:02.957Z,29.00
2023-01-30T01:25:29.635Z,29.08
2023-01-30T01:27:56.402Z,31.27
2023-01-30T01:30:24.028Z,31.27
2023-01-30T01:32:50.581Z,33.17
2023-01-30T01:35:17.518Z,32.58
2023-01-30T01:37:44.362Z,30.85
2023-01-30T01:40:36.588Z,31.20
2023-01-30T01:43:19.293Z,29.70
2023-01-30T01:45:49.674Z,30.10
2023-01-30T01:48:26.260Z,33.13
2023-01-30T01:51:16.608Z,31.67
2023-01-30T01:53:58.218Z,31.20
2023-01-30T01:56:25.753Z,31.98
2023-01-30T01:59:01.549Z,31.13
2023-01-30T02:01:29.637Z,31.90
2023-01-30T02:04:01.910Z,32.45
2023-01-30T02:06:30.121Z,30.90
2023-01-30T02:09:04.749Z,31.50
2023-01-30T02:11:42.306Z,32.13
2023-01-30T02:14:11.171Z,31.40
2023-01-30T02:16:38.249Z,31.90
2023-01-30T02:19:23.996Z,31.08
2023-01-30T02:22:19.932Z,29.63
2023-01-30T02:25:24.233Z,30.25
2023-01-30T02:28:17.534Z,29.90
2023-01-30T02:31:06.021Z,29.58
2023-01-30T02:33:48.690Z,29.20
2023-01-30T02:36:29.013Z,29.42
2023-01-30T02:39:14.482Z,30.20
2023-01-30T02:41:56.015Z,29.55
2023-01-30T02:44:48.909Z,31.23
2023-01-30T02:47:23.806Z,30.73
2023-01-30T02:49:58.400Z,30.05
2023-01-30T02:52:26.875Z,30.65
2023-01-30T02:54:53.817Z,32.28
2023-01-30T02:57:23.173Z,29.55
2023-01-30T02:59:57.472Z,29.95
2023-01-30T03:02:46.370Z,24.73
2023-01-30T03:05:16.608Z,30.52
2023-01-30T03:08:03.944Z,30.45
2023-01-30T03:10:40.745Z,29.42
2023-01-30T03:13:17.404Z,29.10
2023-01-30T03:15:57.307Z,28.52
2023-01-30T03:18:24.193Z,31.67
2023-01-30T03:20:52.247Z,30.00
2023-01-30T03:23:18.817Z,29.30
2023-01-30T03:25:47.538Z,28.73
2023-01-30T03:28:18.268Z,30.17
2023-01-30T03:30:44.923Z,27.30
2023-01-30T03:33:11.549Z,28.48
2023-01-30T03:35:40.621Z,27.75
2023-01-30T03:38:07.255Z,27.55
2023-01-30T03:40:34.939Z,26.10
2023-01-30T03:43:01.879Z,26.95
2023-01-30T03:45:28.500Z,24.92
2023-01-30T03:47:55.201Z,27.05
2023-01-30T03:50:21.765Z,24.02
2023-01-30T03:52:48.320Z,22.75
2023-01-30T03:55:18.620Z,23.67
2023-01-30T03:57:45.480Z,22.17
2023-01-30T04:00:12.735Z,18.70
2023-01-30T04:02:48.143Z,19.40
2023-01-30T04:05:18.395Z,18.02
2023-01-30T04:07:51.358Z,15.40
2023-01-30T04:10:19.975Z,16.08
2023-01-30T04:12:47.311Z,14.02
2023-01-30T04:15:13.953Z,14.05
2023-01-30T04:17:59.274Z,12.55
2023-01-30T04:20:45.489Z,11.00
2023-01-30T04:23:12.815Z,11.57
2023-01-30T04:25:40.082Z,11.50
2023-01-30T04:28:09.139Z,10.18
2023-01-30T04:30:37.800Z,12.43
2023-01-30T04:33:27.093Z,10.63
2023-01-30T04:35:55.096Z,10.00
2023-01-30T04:38:22.720Z,10.27
2023-01-30T04:40:50.492Z,10.52
2023-01-30T04:43:18.665Z,11.48
2023-01-30T04:46:04.677Z,11.43
2023-01-30T04:48:31.335Z,10.73
2023-01-30T04:51:00.723Z,10.52
2023-01-30T04:53:27.676Z,9.88
2023-01-30T04:55:54.425Z,10.15
2023-01-30T04:58:21.347Z,9.70
2023-01-30T05:00:48.244Z,9.15
2023-01-30T05:03:15.760Z,9.93
2023-01-30T05:05:42.358Z,9.20
2023-01-30T05:08:09.460Z,8.27
2023-01-30T05:10:36.045Z,9.48
2023-01-30T05:13:06.389Z,8.23
2023-01-30T05:15:33.614Z,8.85
2023-01-30T05:18:00.968Z,8.93
2023-01-30T05:20:27.632Z,9.60
2023-01-30T05:22:54.308Z,8.30
2023-01-30T05:25:21.400Z,8.35
2023-01-30T05:27:47.972Z,8.15
2023-01-30T05:30:14.699Z,7.55
2023-01-30T05:32:41.243Z,8.27
2023-01-30T05:35:08.418Z,7.57
2023-01-30T05:37:34.987Z,7.65
2023-01-30T05:40:01.568Z,7.60
2023-01-30T05:42:28.079Z,7.10
2023-01-30T05:44:54.701Z,7.50
2023-01-30T05:47:21.277Z,7.05
2023-01-30T05:49:47.771Z,7.43
2023-01-30T05:52:14.319Z,6.57
2023-01-30T05:54:40.916Z,5.80
2023-01-30T05:57:07.541Z,6.75
2023-01-30T05:59:34.132Z,6.90
2023-01-30T06:02:00.641Z,7.38
2023-01-30T06:04:27.208Z,5.68
2023-01-30T06:06:53.673Z,5.32
2023-01-30T06:09:20.232Z,5.30
2023-01-30T06:11:46.807Z,5.13
2023-01-30T06:14:13.424Z,5.63
2023-01-30T06:16:40.026Z,5.45
2023-01-30T06:19:07.669Z,5.40
2023-01-30T06:21:34.239Z,4.20
2023-01-30T06:24:00.849Z,4.43
2023-01-30T06:26:27.405Z,5.25
2023-01-30T06:28:53.919Z,4.18
2023-01-30T06:31:20.485Z,3.45
2023-01-30T06:33:48.904Z,3.25
2023-01-30T06:36:15.631Z,2.83
2023-01-30T06:38:42.116Z,3.42
2023-01-30T06:41:08.658Z,3.20
2023-01-30T06:43:35.158Z,3.05
2023-01-30T06:46:01.726Z,2.85
2023-01-30T06:48:28.330Z,3.22
2023-01-30T06:50:54.836Z,3.35
2023-01-30T06:53:22.436Z,3.53
2023-01-30T06:55:48.977Z,3.55
2023-01-30T06:58:15.715Z,3.60
2023-01-30T07:00:43.103Z,3.80
2023-01-30T07:03:15.565Z,3.17
2023-01-30T07:05:43.708Z,3.03
2023-01-30T07:08:11.211Z,3.58
2023-01-30T07:10:38.485Z,3.20
2023-01-30T07:13:05.078Z,4.50
2023-01-30T07:15:32.338Z,2.75
2023-01-30T07:17:59.611Z,3.20
2023-01-30T07:20:26.447Z,3.22
2023-01-30T07:22:54.334Z,3.45
2023-01-30T07:25:22.496Z,3.20
2023-01-30T07:27:54.126Z,3.85
2023-01-30T07:30:20.954Z,4.13
2023-01-30T07:32:52.603Z,3.78
2023-01-30T07:35:19.617Z,4.40
2023-01-30T07:37:47.934Z,3.80
2023-01-30T07:40:15.383Z,4.28
2023-01-30T07:42:41.914Z,3.45
2023-01-30T07:45:09.071Z,5.15
2023-01-30T07:47:35.640Z,4.78
2023-01-30T07:50:02.415Z,5.15
2023-01-30T07:52:28.931Z,5.47
2023-01-30T07:54:55.448Z,5.05
2023-01-30T07:57:22.081Z,5.10
2023-01-30T07:59:48.616Z,5.63
2023-01-30T08:02:15.127Z,5.65
2023-01-30T08:04:41.812Z,6.53
2023-01-30T08:07:10.005Z,5.82
2023-01-30T08:09:36.478Z,5.45
2023-01-30T08:12:03.030Z,6.28
2023-01-30T08:14:29.641Z,7.30
2023-01-30T08:16:57.797Z,33.95
2023-01-30T08:19:24.316Z,6.78
2023-01-30T08:21:50.850Z,3.92
2023-01-30T08:24:17.310Z,5.13
2023-01-30T08:26:44.015Z,5.55
2023-01-30T08:29:10.551Z,4.30
2023-01-30T08:31:37.149Z,5.78
2023-01-30T08:34:03.646Z,5.38
2023-01-30T08:36:30.173Z,4.78
2023-01-30T08:38:56.702Z,5.07
2023-01-30T08:41:23.162Z,4.60
2023-01-30T08:43:49.661Z,4.55
2023-01-30T08:46:17.390Z,4.68
2023-01-30T08:48:49.982Z,4.97
2023-01-30T08:51:16.840Z,4.22
2023-01-30T08:53:43.375Z,4.40
2023-01-30T08:56:09.916Z,4.22
2023-01-30T08:58:36.836Z,4.68
2023-01-30T09:01:07.090Z,4.93
2023-01-30T09:03:33.863Z,4.10
2023-01-30T09:06:00.448Z,4.20
2023-01-30T09:08:26.974Z,4.93
2023-01-30T09:10:57.925Z,4.30
2023-01-30T09:13:24.468Z,4.03
2023-01-30T09:15:51.012Z,4.35
2023-01-30T09:18:17.540Z,4.18
2023-01-30T09:20:44.069Z,5.13
2023-01-30T09:23:10.554Z,4.28
2023-01-30T09:25:37.670Z,3.95
2023-01-30T09:28:04.307Z,3.40
2023-01-30T09:30:30.897Z,4.05
2023-01-30T09:32:57.486Z,4.38
2023-01-30T09:35:23.953Z,4.15
2023-01-30T09:37:52.896Z,4.95
2023-01-30T09:40:27.129Z,3.95
2023-01-30T09:43:00.199Z,3.45
2023-01-30T09:45:53.403Z,4.32
2023-01-30T09:48:27.055Z,3.40
2023-01-30T09:51:08.859Z,3.67
2023-01-30T09:53:56.895Z,3.50
2023-01-30T09:56:24.101Z,4.28
2023-01-30T09:59:04.250Z,4.35
2023-01-30T10:01:36.690Z,3.55
2023-01-30T10:04:25.099Z,3.72
2023-01-30T10:07:05.762Z,4.32
2023-01-30T10:09:40.335Z,3.13
2023-01-30T10:12:42.874Z,3.70
2023-01-30T10:15:38.174Z,4.63
2023-01-30T10:18:36.108Z,3.38
2023-01-30T10:21:17.491Z,3.17
2023-01-30T10:24:04.452Z,3.78
2023-01-30T10:26:31.959Z,4.35
2023-01-30T10:29:06.558Z,3.97
2023-01-30T10:32:03.393Z,3.20
2023-01-30T10:34:36.627Z,3.08
2023-01-30T10:37:11.226Z,2.70
2023-01-30T10:39:55.189Z,4.45
2023-01-30T10:42:43.564Z,4.63
2023-01-30T10:45:15.034Z,4.55
2023-01-30T10:47:51.873Z,3.65
2023-01-30T10:50:26.976Z,3.40
2023-01-30T10:52:59.695Z,3.72
2023-01-30T10:55:38.071Z,2.97
2023-01-30T10:58:32.508Z,4.07
2023-01-30T11:01:12.155Z,3.88
2023-01-30T11:03:56.276Z,3.28
2023-01-30T11:06:25.346Z,3.33
2023-01-30T11:08:53.884Z,3.80
2023-01-30T11:11:35.736Z,3.28
2023-01-30T11:14:02.310Z,3.17
2023-01-30T11:16:29.261Z,4.15
2023-01-30T11:21:55.001Z,3.55
2023-01-30T11:24:31.123Z,4.22
2023-01-30T11:27:19.277Z,3.40
2023-01-30T11:29:46.426Z,3.17
2023-01-30T11:32:19.832Z,3.40
2023-01-30T11:35:03.757Z,3.42
2023-01-30T11:37:33.004Z,3.90
2023-01-30T11:39:59.564Z,4.68
2023-01-30T11:42:31.362Z,4.65
2023-01-30T11:45:16.270Z,4.68
2023-01-30T11:47:57.645Z,4.13
2023-01-30T11:50:36.420Z,4.72
2023-01-30T11:53:20.679Z,4.30
2023-01-30T11:56:02.310Z,3.85
2023-01-30T11:58:34.367Z,4.32
2023-01-30T12:01:02.193Z,4.93
2023-01-30T12:03:30.314Z,4.30
2023-01-30T12:05:58.901Z,3.88
2023-01-30T12:08:43.829Z,4.72
2023-01-30T12:11:46.025Z,4.53
2023-01-30T12:14:27.516Z,4.47
2023-01-30T12:17:12.901Z,4.45
2023-01-30T12:20:03.841Z,6.32
2023-01-30T12:22:30.341Z,4.35
2023-01-30T12:25:03.719Z,5.15
2023-01-30T12:28:01.880Z,4.30
2023-01-30T12:30:47.184Z,5.05
2023-01-30T12:35:57.175Z,4.68
2023-01-30T12:38:45.931Z,5.57
2023-01-30T12:41:20.679Z,4.63
2023-01-30T12:44:18.392Z,5.45
2023-01-30T12:46:58.425Z,4.50
2023-01-30T12:49:31.883Z,4.00
2023-01-30T12:52:07.232Z,3.97
2023-01-30T12:54:42.695Z,4.93
2023-01-30T12:57:24.702Z,5.00
2023-01-30T13:00:00.429Z,4.32
2023-01-30T13:02:52.784Z,4.43
2023-01-30T13:05:22.391Z,5.35
2023-01-30T13:07:57.208Z,5.38
2023-01-30T13:10:51.877Z,4.22
2023-01-30T13:13:52.399Z,4.25
2023-01-30T13:16:50.333Z,3.72
2023-01-30T13:19:25.499Z,4.35
2023-01-30T13:22:13.217Z,4.50
2023-01-30T13:24:46.788Z,4.82
2023-01-30T13:27:19.101Z,3.72
2023-01-30T13:29:47.907Z,4.30
2023-01-30T13:32:37.909Z,4.30
2023-01-30T13:35:09.725Z,3.95
2023-01-30T13:37:38.083Z,4.40
2023-01-30T13:40:17.490Z,4.68
2023-01-30T13:42:59.548Z,4.40
2023-01-30T13:45:32.324Z,5.07
2023-01-30T13:48:34.822Z,4.43
2023-01-30T13:51:26.371Z,4.80
2023-01-30T13:54:30.707Z,4.45
2023-01-30T13:57:08.301Z,4.43
2023-01-30T13:59:46.971Z,4.28
2023-01-30T14:02:19.536Z,4.13
2023-01-30T14:07:49.061Z,4.53
2023-01-30T14:10:20.506Z,5.95
2023-01-30T14:12:50.350Z,4.10
2023-01-30T14:15:18.690Z,3.95
2023-01-30T14:17:57.455Z,4.32
2023-01-30T14:20:27.187Z,3.72
2023-01-30T14:22:59.082Z,3.58
2023-01-30T14:25:25.641Z,4.88
2023-01-30T14:27:55.289Z,4.38
2023-01-30T14:30:49.354Z,3.67
2023-01-30T14:33:21.803Z,4.53
2023-01-30T14:35:58.250Z,4.72
2023-01-30T14:38:31.854Z,5.32
2023-01-30T14:40:58.453Z,4.60
2023-01-30T14:43:43.237Z,4.78
2023-01-30T14:46:18.932Z,4.65
2023-01-30T14:48:50.034Z,5.10
2023-01-30T14:51:28.768Z,5.30
2023-01-30T14:54:16.782Z,4.93
2023-01-30T14:57:01.160Z,4.53
2023-01-30T14:59:33.523Z,3.83
2023-01-30T15:02:14.679Z,4.93
2023-01-30T15:04:56.590Z,3.78
2023-01-30T15:07:51.630Z,4.97
2023-01-30T15:10:40.867Z,3.92
2023-01-30T15:13:26.126Z,5.38
2023-01-30T15:16:17.433Z,6.43
2023-01-30T15:19:06.087Z,5.07
2023-01-30T15:21:40.533Z,5.75
2023-01-30T15:24:30.845Z,4.53
2023-01-30T15:27:30.816Z,4.30
2023-01-30T15:30:17.222Z,4.53
2023-01-30T15:32:44.656Z,5.60
2023-01-30T15:35:11.089Z,9.65
2023-01-30T15:37:51.316Z,7.55
2023-01-30T15:40:19.576Z,5.18
2023-01-30T15:43:01.068Z,4.68
2023-01-30T15:45:48.799Z,5.57
2023-01-30T15:48:25.738Z,4.85
2023-01-30T15:50:56.133Z,4.80
2023-01-30T15:53:28.805Z,4.75
2023-01-30T15:55:55.645Z,4.90
2023-01-30T15:58:23.965Z,4.70
2023-01-30T16:01:00.044Z,6.18
2023-01-30T16:03:41.388Z,5.60
2023-01-30T16:06:22.384Z,5.25
2023-01-30T16:09:14.714Z,6.78
2023-01-30T16:11:43.231Z,6.10
2023-01-30T16:14:15.049Z,6.07
2023-01-30T16:16:57.642Z,6.40
2023-01-30T16:19:30.983Z,8.32
2023-01-30T16:22:05.265Z,5.05
2023-01-30T16:24:35.661Z,5.65
2023-01-30T16:27:06.429Z,6.40
2023-01-30T16:29:44.862Z,5.78
2023-01-30T16:32:14.988Z,6.43
2023-01-30T16:34:41.540Z,5.47
2023-01-30T16:37:20.165Z,7.43
2023-01-30T16:40:13.599Z,6.65
2023-01-30T16:42:40.912Z,6.78
2023-01-30T16:45:43.118Z,5.75
2023-01-30T16:48:23.531Z,5.80
2023-01-30T16:50:59.647Z,4.97
2023-01-30T16:56:07.469Z,5.18
2023-01-30T16:58:36.597Z,5.68
2023-01-30T17:01:06.657Z,5.47
2023-01-30T17:03:36.947Z,5.20
2023-01-30T17:06:12.424Z,5.60
2023-01-30T17:08:58.089Z,4.90
2023-01-30T17:11:32.272Z,5.30
2023-01-30T17:14:22.703Z,6.03
2023-01-30T17:17:07.539Z,11.38
2023-01-30T17:19:36.081Z,10.40
2023-01-30T17:22:06.537Z,12.10
2023-01-30T17:24:35.852Z,8.15
2023-01-30T17:27:04.408Z,4.90
2023-01-30T17:29:42.390Z,6.88
2023-01-30T17:32:12.178Z,7.07
2023-01-30T17:34:41.019Z,5.38
2023-01-30T17:37:21.254Z,4.78
2023-01-30T17:39:48.645Z,8.55
2023-01-30T17:42:18.546Z,5.60
2023-01-30T17:44:45.129Z,7.03
2023-01-30T17:47:12.508Z,7.75
2023-01-30T17:49:40.106Z,5.55
2023-01-30T17:52:07.010Z,5.47
2023-01-30T17:54:33.626Z,4.40
2023-01-30T17:57:03.028Z,4.72
2023-01-30T17:59:30.333Z,5.03
2023-01-30T18:01:56.970Z,3.95
2023-01-30T18:04:23.916Z,6.18
2023-01-30T18:06:54.220Z,7.97
2023-01-30T18:09:24.274Z,6.00
2023-01-30T18:11:51.359Z,6.78
2023-01-30T18:14:18.475Z,3.88
2023-01-30T18:16:45.628Z,4.65
2023-01-30T18:19:14.959Z,4.50
2023-01-30T18:21:45.073Z,4.90
2023-01-30T18:24:14.835Z,4.40
2023-01-30T18:26:42.567Z,4.50
2023-01-30T18:29:09.870Z,4.43
2023-01-30T18:31:38.049Z,3.63
2023-01-30T18:34:05.058Z,4.57
2023-01-30T18:36:34.004Z,4.57
2023-01-30T18:39:01.205Z,4.55
2023-01-30T18:41:29.183Z,4.82
2023-01-30T18:43:58.347Z,5.47
2023-01-30T18:46:25.939Z,4.78
2023-01-30T18:48:52.673Z,4.90
2023-01-30T18:51:24.752Z,5.55
2023-01-30T18:53:52.773Z,4.53
2023-01-30T18:56:29.355Z,7.35
2023-01-30T18:58:56.814Z,5.32
2023-01-30T19:01:27.219Z,4.20
2023-01-30T19:03:56.322Z,3.45
2023-01-30T19:06:23.624Z,4.07
2023-01-30T19:08:51.342Z,3.95
2023-01-30T19:11:39.697Z,3.25
2023-01-30T19:14:10.001Z,4.30
2023-01-30T19:16:38.746Z,4.60
2023-01-30T19:19:06.716Z,4.45
2023-01-30T19:21:34.323Z,3.47
2023-01-30T19:24:06.690Z,4.13
2023-01-30T19:26:34.013Z,3.50
2023-01-30T19:29:00.657Z,4.47
2023-01-30T19:31:27.432Z,3.78
2023-01-30T19:33:59.167Z,3.88
2023-01-30T19:36:27.471Z,3.70
2023-01-30T19:38:54.756Z,3.80
2023-01-30T19:41:27.037Z,3.90
2023-01-30T19:43:55.286Z,4.60
2023-01-30T19:46:22.549Z,5.25
2023-01-30T19:48:50.365Z,5.80
2023-01-30T19:51:21.621Z,5.03
2023-01-30T19:53:59.579Z,5.75
2023-01-30T19:56:27.973Z,4.18
2023-01-30T19:58:57.172Z,3.83
2023-01-30T20:01:27.411Z,5.28
2023-01-30T20:03:54.435Z,5.07
2023-01-30T20:06:22.995Z,4.20
2023-01-30T20:08:55.027Z,4.57
2023-01-30T20:11:22.096Z,4.93
2023-01-30T20:13:49.466Z,4.75
2023-01-30T20:16:20.593Z,5.43
2023-01-30T20:18:58.872Z,6.70
2023-01-30T20:21:27.247Z,6.78
2023-01-30T20:23:54.886Z,12.23
2023-01-30T20:26:24.292Z,26.08
2023-01-30T20:28:51.328Z,12.27
2023-01-30T20:31:23.072Z,23.58
2023-01-30T20:33:49.686Z,9.20
2023-01-30T20:36:19.167Z,10.48
2023-01-30T20:38:47.614Z,8.65
2023-01-30T20:41:16.782Z,5.50
2023-01-30T20:43:49.198Z,6.10
2023-01-30T20:46:27.519Z,4.85
2023-01-30T20:48:58.159Z,5.93
2023-01-30T20:51:27.328Z,6.95
2023-01-30T20:53:58.533Z,6.18
2023-01-30T20:56:27.385Z,6.55
2023-01-30T20:58:54.013Z,5.72
2023-01-30T21:01:23.260Z,5.25
2023-01-30T21:03:52.194Z,4.50
2023-01-30T21:06:42.531Z,5.03
2023-01-30T21:09:29.661Z,5.28
2023-01-30T21:11:56.324Z,5.47
2023-01-30T21:14:24.574Z,4.90
2023-01-30T21:16:52.908Z,5.22
2023-01-30T21:19:19.860Z,4.70
2023-01-30T21:21:53.335Z,4.95
2023-01-30T21:24:23.671Z,5.20
2023-01-30T21:26:50.826Z,5.28
2023-01-30T21:29:21.185Z,4.82
2023-01-30T21:31:47.902Z,4.90
2023-01-30T21:34:14.691Z,5.07
2023-01-30T21:36:41.559Z,5.22
2023-01-30T21:39:31.338Z,3.80
2023-01-30T21:42:16.604Z,4.13
2023-01-30T21:44:43.195Z,4.32
2023-01-30T21:47:09.735Z,5.63
2023-01-30T21:49:37.023Z,4.30
2023-01-30T21:52:04.021Z,5.25
2023-01-30T21:54:30.684Z,4.97
2023-01-30T21:56:57.227Z,6.00
2023-01-30T21:59:23.755Z,5.10
2023-01-30T22:01:50.909Z,4.20
2023-01-30T22:04:17.832Z,4.13
2023-01-30T22:06:44.581Z,3.83
2023-01-30T22:09:13.513Z,4.72
2023-01-30T22:11:40.024Z,4.32
2023-01-30T22:14:06.723Z,4.97
2023-01-30T22:16:33.814Z,4.32
2023-01-30T22:19:03.045Z,4.47
2023-01-30T22:21:33.191Z,4.53
2023-01-30T22:24:01.741Z,4.25
2023-01-30T22:26:28.448Z,6.20
2023-01-30T22:28:56.669Z,4.55
2023-01-30T22:31:24.900Z,4.53
2023-01-30T22:33:54.078Z,3.90
2023-01-30T22:36:23.889Z,4.72
2023-01-30T22:38:50.833Z,4.60
2023-01-30T22:41:19.983Z,4.20
2023-01-30T22:43:52.725Z,5.38
2023-01-30T22:46:19.952Z,4.63
2023-01-30T22:48:46.918Z,4.10
2023-01-30T22:51:15.125Z,4.18
2023-01-30T22:53:44.581Z,4.45
2023-01-30T22:56:19.875Z,4.00
2023-01-30T22:58:47.280Z,4.07
2023-01-30T23:01:21.251Z,4.50
2023-01-30T23:03:52.661Z,4.07
2023-01-30T23:06:19.602Z,5.28
2023-01-30T23:08:48.185Z,4.20
2023-01-30T23:11:22.890Z,4.47
2023-01-30T23:13:51.951Z,4.95
2023-01-30T23:16:21.774Z,3.88
2023-01-30T23:18:55.286Z,4.60
2023-01-30T23:21:31.728Z,4.72
2023-01-30T23:24:00.940Z,3.75
2023-01-30T23:26:30.709Z,5.20
2023-01-30T23:28:58.132Z,3.85
2023-01-30T23:31:26.519Z,4.75
2023-01-30T23:34:05.337Z,3.92
2023-01-30T23:36:33.069Z,4.03
2023-01-30T23:39:00.927Z,3.60
2023-01-30T23:41:30.553Z,4.95
2023-01-30T23:43:58.556Z,4.43
2023-01-30T23:46:30.967Z,4.20
2023-01-30T23:49:00.859Z,3.38
2023-01-30T23:51:29.563Z,3.58
2023-01-30T23:53:56.707Z,4.05
2023-01-30T23:56:25.691Z,5.05
2023-01-30T23:58:52.283Z,3.60
